Aviation Digital Data Service (ADDS)

Output produced by METARs form (2321 UTC 18 October 2019)
found at http://www.aviationweather.gov/metar/data/
 
METAR text: DAAG 182300Z 00000KT CAVOK 15/13 Q1016
Conditions at: DAAG (DAR-EL-BEIDA/HOU, DZ) observed 2300 UTC 18 October 2019
Temperature: 15.0°C (59°F)
Dewpoint: 13.0°C (55°F) [RH = 88%]
Pressure (altimeter): 30.00 inches Hg (1016.0 mb)
Winds: calm
Visibility: 6 or more miles (10+ km)
Ceiling: ceiling and visibility are OK
Clouds: unknown
Weather: no significant weather observed at this time

METAR text: DAAG 182230Z 00000KT 9999 FEW026 SCT200 16/14 Q1016
Conditions at: DAAG (DAR-EL-BEIDA/HOU, DZ) observed 2230 UTC 18 October 2019
Temperature: 16.0°C (61°F)
Dewpoint: 14.0°C (57°F) [RH = 88%]
Pressure (altimeter): 30.00 inches Hg (1016.0 mb)
Winds: calm
Visibility: 6 or more miles (10+ km)
Ceiling: at least 12,000 feet AGL
Clouds: few clouds at 2600 feet AGL
scattered clouds at 20000 feet AGL
Weather: no significant weather observed at this time

METAR text: DAAG 182200Z 00000KT 9999 FEW026 SCT200 16/14 Q1016
Conditions at: DAAG (DAR-EL-BEIDA/HOU, DZ) observed 2200 UTC 18 October 2019
Temperature: 16.0°C (61°F)
Dewpoint: 14.0°C (57°F) [RH = 88%]
Pressure (altimeter): 30.00 inches Hg (1016.0 mb)
Winds: calm
Visibility: 6 or more miles (10+ km)
Ceiling: at least 12,000 feet AGL
Clouds: few clouds at 2600 feet AGL
scattered clouds at 20000 feet AGL
Weather: no significant weather observed at this time

METAR text: DAAG 182130Z 18002KT 9999 FEW026 SCT200 17/15 Q1016
Conditions at: DAAG (DAR-EL-BEIDA/HOU, DZ) observed 2130 UTC 18 October 2019
Temperature: 17.0°C (63°F)
Dewpoint: 15.0°C (59°F) [RH = 88%]
Pressure (altimeter): 30.00 inches Hg (1016.0 mb)
Winds: from the S (180 degrees) at 2 MPH (2 knots; 1.0 m/s)
Visibility: 6 or more miles (10+ km)
Ceiling: at least 12,000 feet AGL
Clouds: few clouds at 2600 feet AGL
scattered clouds at 20000 feet AGL
Weather: no significant weather observed at this time

METAR text: DAAG 182100Z 16003KT 090V190 9999 FEW026 SCT200 18/15 Q1016
Conditions at: DAAG (DAR-EL-BEIDA/HOU, DZ) observed 2100 UTC 18 October 2019
Temperature: 18.0°C (64°F)
Dewpoint: 15.0°C (59°F) [RH = 83%]
Pressure (altimeter): 30.00 inches Hg (1016.0 mb)
Winds: from the SSE (160 degrees) at 3 MPH (3 knots; 1.5 m/s)
Visibility: 6 or more miles (10+ km)
Ceiling: at least 12,000 feet AGL
Clouds: few clouds at 2600 feet AGL
scattered clouds at 20000 feet AGL
Weather: no significant weather observed at this time

METAR text: DAAG 182030Z 04004KT 360V080 9999 FEW026 SCT200 20/16 Q1016
Conditions at: DAAG (DAR-EL-BEIDA/HOU, DZ) observed 2030 UTC 18 October 2019
Temperature: 20.0°C (68°F)
Dewpoint: 16.0°C (61°F) [RH = 78%]
Pressure (altimeter): 30.00 inches Hg (1016.0 mb)
Winds: from the NE (40 degrees) at 5 MPH (4 knots; 2.1 m/s)
Visibility: 6 or more miles (10+ km)
Ceiling: at least 12,000 feet AGL
Clouds: few clouds at 2600 feet AGL
scattered clouds at 20000 feet AGL
Weather: no significant weather observed at this time

METAR text: DAAG 182000Z 07003KT 040V100 9999 FEW026 SCT200 19/16 Q1016
Conditions at: DAAG (DAR-EL-BEIDA/HOU, DZ) observed 2000 UTC 18 October 2019
Temperature: 19.0°C (66°F)
Dewpoint: 16.0°C (61°F) [RH = 83%]
Pressure (altimeter): 30.00 inches Hg (1016.0 mb)
Winds: from the ENE (70 degrees) at 3 MPH (3 knots; 1.5 m/s)
Visibility: 6 or more miles (10+ km)
Ceiling: at least 12,000 feet AGL
Clouds: few clouds at 2600 feet AGL
scattered clouds at 20000 feet AGL
Weather: no significant weather observed at this time

METAR text: DAAG 181930Z 08004KT 050V110 9999 FEW026 SCT200 20/16 Q1017
Conditions at: DAAG (DAR-EL-BEIDA/HOU, DZ) observed 1930 UTC 18 October 2019
Temperature: 20.0°C (68°F)
Dewpoint: 16.0°C (61°F) [RH = 78%]
Pressure (altimeter): 30.03 inches Hg (1017.0 mb)
Winds: from the E (80 degrees) at 5 MPH (4 knots; 2.1 m/s)
Visibility: 6 or more miles (10+ km)
Ceiling: at least 12,000 feet AGL
Clouds: few clouds at 2600 feet AGL
scattered clouds at 20000 feet AGL
Weather: no significant weather observed at this time

METAR text: DAAG 181900Z 08003KT CAVOK 20/16 Q1017
Conditions at: DAAG (DAR-EL-BEIDA/HOU, DZ) observed 1900 UTC 18 October 2019
Temperature: 20.0°C (68°F)
Dewpoint: 16.0°C (61°F) [RH = 78%]
Pressure (altimeter): 30.03 inches Hg (1017.0 mb)
Winds: from the E (80 degrees) at 3 MPH (3 knots; 1.5 m/s)
Visibility: 6 or more miles (10+ km)
Ceiling: ceiling and visibility are OK
Clouds: unknown
Weather: no significant weather observed at this time

METAR text: DAAG 181830Z 09004KT 060V120 CAVOK 21/16 Q1017
Conditions at: DAAG (DAR-EL-BEIDA/HOU, DZ) observed 1830 UTC 18 October 2019
Temperature: 21.0°C (70°F)
Dewpoint: 16.0°C (61°F) [RH = 73%]
Pressure (altimeter): 30.03 inches Hg (1017.0 mb)
Winds: from the E (90 degrees) at 5 MPH (4 knots; 2.1 m/s)
Visibility: 6 or more miles (10+ km)
Ceiling: ceiling and visibility are OK
Clouds: unknown
Weather: no significant weather observed at this time

METAR text: DAAG 181800Z 09004KT 050V110 CAVOK 21/16 Q1017
Conditions at: DAAG (DAR-EL-BEIDA/HOU, DZ) observed 1800 UTC 18 October 2019
Temperature: 21.0°C (70°F)
Dewpoint: 16.0°C (61°F) [RH = 73%]
Pressure (altimeter): 30.03 inches Hg (1017.0 mb)
Winds: from the E (90 degrees) at 5 MPH (4 knots; 2.1 m/s)
Visibility: 6 or more miles (10+ km)
Ceiling: ceiling and visibility are OK
Clouds: unknown
Weather: no significant weather observed at this time

METAR text: DAAG 181730Z 09005KT 030V130 CAVOK 22/16 Q1017
Conditions at: DAAG (DAR-EL-BEIDA/HOU, DZ) observed 1730 UTC 18 October 2019
Temperature: 22.0°C (72°F)
Dewpoint: 16.0°C (61°F) [RH = 69%]
Pressure (altimeter): 30.03 inches Hg (1017.0 mb)
Winds: from the E (90 degrees) at 6 MPH (5 knots; 2.6 m/s)
Visibility: 6 or more miles (10+ km)
Ceiling: ceiling and visibility are OK
Clouds: unknown
Weather: no significant weather observed at this time

METAR text: DAAG 181700Z 09006KT CAVOK 23/16 Q1017
Conditions at: DAAG (DAR-EL-BEIDA/HOU, DZ) observed 1700 UTC 18 October 2019
Temperature: 23.0°C (73°F)
Dewpoint: 16.0°C (61°F) [RH = 65%]
Pressure (altimeter): 30.03 inches Hg (1017.0 mb)
Winds: from the E (90 degrees) at 7 MPH (6 knots; 3.1 m/s)
Visibility: 6 or more miles (10+ km)
Ceiling: ceiling and visibility are OK
Clouds: unknown
Weather: no significant weather observed at this time

METAR text: DAAG 181630Z 04006KT 340V070 CAVOK 24/16 Q1017
Conditions at: DAAG (DAR-EL-BEIDA/HOU, DZ) observed 1630 UTC 18 October 2019
Temperature: 24.0°C (75°F)
Dewpoint: 16.0°C (61°F) [RH = 61%]
Pressure (altimeter): 30.03 inches Hg (1017.0 mb)
Winds: from the NE (40 degrees) at 7 MPH (6 knots; 3.1 m/s)
Visibility: 6 or more miles (10+ km)
Ceiling: ceiling and visibility are OK
Clouds: unknown
Weather: no significant weather observed at this time

METAR text: DAAG 181600Z 02009KT CAVOK 25/16 Q1017
Conditions at: DAAG (DAR-EL-BEIDA/HOU, DZ) observed 1600 UTC 18 October 2019
Temperature: 25.0°C (77°F)
Dewpoint: 16.0°C (61°F) [RH = 57%]
Pressure (altimeter): 30.03 inches Hg (1017.0 mb)
Winds: from the NNE (20 degrees) at 10 MPH (9 knots; 4.6 m/s)
Visibility: 6 or more miles (10+ km)
Ceiling: ceiling and visibility are OK
Clouds: unknown
Weather: no significant weather observed at this time

METAR text: DAAG 181530Z 03008KT 350V070 9999 FEW026 BKN200 25/16 Q1017
Conditions at: DAAG (DAR-EL-BEIDA/HOU, DZ) observed 1530 UTC 18 October 2019
Temperature: 25.0°C (77°F)
Dewpoint: 16.0°C (61°F) [RH = 57%]
Pressure (altimeter): 30.03 inches Hg (1017.0 mb)
Winds: from the NNE (30 degrees) at 9 MPH (8 knots; 4.1 m/s)
Visibility: 6 or more miles (10+ km)
Ceiling: 20000 feet AGL
Clouds: few clouds at 2600 feet AGL
broken clouds at 20000 feet AGL
Weather: no significant weather observed at this time

METAR text: DAAG 181500Z 05006KT 010V090 9999 FEW026 BKN200 25/16 Q1017
Conditions at: DAAG (DAR-EL-BEIDA/HOU, DZ) observed 1500 UTC 18 October 2019
Temperature: 25.0°C (77°F)
Dewpoint: 16.0°C (61°F) [RH = 57%]
Pressure (altimeter): 30.03 inches Hg (1017.0 mb)
Winds: from the NE (50 degrees) at 7 MPH (6 knots; 3.1 m/s)
Visibility: 6 or more miles (10+ km)
Ceiling: 20000 feet AGL
Clouds: few clouds at 2600 feet AGL
broken clouds at 20000 feet AGL
Weather: no significant weather observed at this time

METAR text: DAAG 181430Z 04009KT 360V070 9999 FEW026 BKN200 25/15 Q1017
Conditions at: DAAG (DAR-EL-BEIDA/HOU, DZ) observed 1430 UTC 18 October 2019
Temperature: 25.0°C (77°F)
Dewpoint: 15.0°C (59°F) [RH = 54%]
Pressure (altimeter): 30.03 inches Hg (1017.0 mb)
Winds: from the NE (40 degrees) at 10 MPH (9 knots; 4.6 m/s)
Visibility: 6 or more miles (10+ km)
Ceiling: 20000 feet AGL
Clouds: few clouds at 2600 feet AGL
broken clouds at 20000 feet AGL
Weather: no significant weather observed at this time

METAR text: DAAG 181400Z 01010KT 9999 FEW026 BKN200 26/14 Q1018
Conditions at: DAAG (DAR-EL-BEIDA/HOU, DZ) observed 1400 UTC 18 October 2019
Temperature: 26.0°C (79°F)
Dewpoint: 14.0°C (57°F) [RH = 48%]
Pressure (altimeter): 30.06 inches Hg (1018.0 mb)
Winds: from the N (10 degrees) at 12 MPH (10 knots; 5.1 m/s)
Visibility: 6 or more miles (10+ km)
Ceiling: 20000 feet AGL
Clouds: few clouds at 2600 feet AGL
broken clouds at 20000 feet AGL
Weather: no significant weather observed at this time

METAR text: DAAG 181330Z 03009KT 360V070 9999 FEW026 SCT200 26/14 Q1017
Conditions at: DAAG (DAR-EL-BEIDA/HOU, DZ) observed 1330 UTC 18 October 2019
Temperature: 26.0°C (79°F)
Dewpoint: 14.0°C (57°F) [RH = 48%]
Pressure (altimeter): 30.03 inches Hg (1017.0 mb)
Winds: from the NNE (30 degrees) at 10 MPH (9 knots; 4.6 m/s)
Visibility: 6 or more miles (10+ km)
Ceiling: at least 12,000 feet AGL
Clouds: few clouds at 2600 feet AGL
scattered clouds at 20000 feet AGL
Weather: no significant weather observed at this time

METAR text: DAAG 181300Z 03009KT 9999 FEW026 BKN200 26/14 Q1017
Conditions at: DAAG (DAR-EL-BEIDA/HOU, DZ) observed 1300 UTC 18 October 2019
Temperature: 26.0°C (79°F)
Dewpoint: 14.0°C (57°F) [RH = 48%]
Pressure (altimeter): 30.03 inches Hg (1017.0 mb)
Winds: from the NNE (30 degrees) at 10 MPH (9 knots; 4.6 m/s)
Visibility: 6 or more miles (10+ km)
Ceiling: 20000 feet AGL
Clouds: few clouds at 2600 feet AGL
broken clouds at 20000 feet AGL
Weather: no significant weather observed at this time

METAR text: DAAG 181230Z 02009KT 340V060 9999 FEW026 BKN200 27/14 Q1018
Conditions at: DAAG (DAR-EL-BEIDA/HOU, DZ) observed 1230 UTC 18 October 2019
Temperature: 27.0°C (81°F)
Dewpoint: 14.0°C (57°F) [RH = 45%]
Pressure (altimeter): 30.06 inches Hg (1018.0 mb)
Winds: from the NNE (20 degrees) at 10 MPH (9 knots; 4.6 m/s)
Visibility: 6 or more miles (10+ km)
Ceiling: 20000 feet AGL
Clouds: few clouds at 2600 feet AGL
broken clouds at 20000 feet AGL
Weather: no significant weather observed at this time

METAR text: DAAG 181200Z 02008KT 350V060 9999 FEW026 BKN200 27/13 Q1018
Conditions at: DAAG (DAR-EL-BEIDA/HOU, DZ) observed 1200 UTC 18 October 2019
Temperature: 27.0°C (81°F)
Dewpoint: 13.0°C (55°F) [RH = 42%]
Pressure (altimeter): 30.06 inches Hg (1018.0 mb)
Winds: from the NNE (20 degrees) at 9 MPH (8 knots; 4.1 m/s)
Visibility: 6 or more miles (10+ km)
Ceiling: 20000 feet AGL
Clouds: few clouds at 2600 feet AGL
broken clouds at 20000 feet AGL
Weather: no significant weather observed at this time

METAR text: DAAG 181130Z 03007KT 340V060 9999 FEW026 BKN200 27/13 Q1019
Conditions at: DAAG (DAR-EL-BEIDA/HOU, DZ) observed 1130 UTC 18 October 2019
Temperature: 27.0°C (81°F)
Dewpoint: 13.0°C (55°F) [RH = 42%]
Pressure (altimeter): 30.09 inches Hg (1019.0 mb)
Winds: from the NNE (30 degrees) at 8 MPH (7 knots; 3.6 m/s)
Visibility: 6 or more miles (10+ km)
Ceiling: 20000 feet AGL
Clouds: few clouds at 2600 feet AGL
broken clouds at 20000 feet AGL
Weather: no significant weather observed at this time

METAR text: DAAG 181100Z 27004KT 200V320 9999 FEW026 BKN200 26/12 Q1019
Conditions at: DAAG (DAR-EL-BEIDA/HOU, DZ) observed 1100 UTC 18 October 2019
Temperature: 26.0°C (79°F)
Dewpoint: 12.0°C (54°F) [RH = 42%]
Pressure (altimeter): 30.09 inches Hg (1019.0 mb)
Winds: from the W (270 degrees) at 5 MPH (4 knots; 2.1 m/s)
Visibility: 6 or more miles (10+ km)
Ceiling: 20000 feet AGL
Clouds: few clouds at 2600 feet AGL
broken clouds at 20000 feet AGL
Weather: no significant weather observed at this time

METAR text: DAAG 181030Z 28003KT 180V340 CAVOK 26/12 Q1019
Conditions at: DAAG (DAR-EL-BEIDA/HOU, DZ) observed 1030 UTC 18 October 2019
Temperature: 26.0°C (79°F)
Dewpoint: 12.0°C (54°F) [RH = 42%]
Pressure (altimeter): 30.09 inches Hg (1019.0 mb)
Winds: from the W (280 degrees) at 3 MPH (3 knots; 1.5 m/s)
Visibility: 6 or more miles (10+ km)
Ceiling: ceiling and visibility are OK
Clouds: unknown
Weather: no significant weather observed at this time

METAR text: DAAG 181000Z 27004KT 220V340 CAVOK 25/12 Q1019
Conditions at: DAAG (DAR-EL-BEIDA/HOU, DZ) observed 1000 UTC 18 October 2019
Temperature: 25.0°C (77°F)
Dewpoint: 12.0°C (54°F) [RH = 44%]
Pressure (altimeter): 30.09 inches Hg (1019.0 mb)
Winds: from the W (270 degrees) at 5 MPH (4 knots; 2.1 m/s)
Visibility: 6 or more miles (10+ km)
Ceiling: ceiling and visibility are OK
Clouds: unknown
Weather: no significant weather observed at this time

METAR text: DAAG 180930Z 30003KT 230V010 CAVOK 24/13 Q1019
Conditions at: DAAG (DAR-EL-BEIDA/HOU, DZ) observed 0930 UTC 18 October 2019
Temperature: 24.0°C (75°F)
Dewpoint: 13.0°C (55°F) [RH = 50%]
Pressure (altimeter): 30.09 inches Hg (1019.0 mb)
Winds: from the WNW (300 degrees) at 3 MPH (3 knots; 1.5 m/s)
Visibility: 6 or more miles (10+ km)
Ceiling: ceiling and visibility are OK
Clouds: unknown
Weather: no significant weather observed at this time

METAR text: DAAG 180900Z 28004KT 240V320 CAVOK 22/15 Q1020
Conditions at: DAAG (DAR-EL-BEIDA/HOU, DZ) observed 0900 UTC 18 October 2019
Temperature: 22.0°C (72°F)
Dewpoint: 15.0°C (59°F) [RH = 65%]
Pressure (altimeter): 30.12 inches Hg (1020.0 mb)
Winds: from the W (280 degrees) at 5 MPH (4 knots; 2.1 m/s)
Visibility: 6 or more miles (10+ km)
Ceiling: ceiling and visibility are OK
Clouds: unknown
Weather: no significant weather observed at this time

METAR text: DAAG 180830Z VRB02KT CAVOK 21/16 Q1019
Conditions at: DAAG (DAR-EL-BEIDA/HOU, DZ) observed 0830 UTC 18 October 2019
Temperature: 21.0°C (70°F)
Dewpoint: 16.0°C (61°F) [RH = 73%]
Pressure (altimeter): 30.09 inches Hg (1019.0 mb)
Winds: variable direction winds at 2 MPH (2 knots; 1.0 m/s)
Visibility: 6 or more miles (10+ km)
Ceiling: ceiling and visibility are OK
Clouds: unknown
Weather: no significant weather observed at this time

METAR text: DAAG 180800Z VRB02KT CAVOK 19/16 Q1019
Conditions at: DAAG (DAR-EL-BEIDA/HOU, DZ) observed 0800 UTC 18 October 2019
Temperature: 19.0°C (66°F)
Dewpoint: 16.0°C (61°F) [RH = 83%]
Pressure (altimeter): 30.09 inches Hg (1019.0 mb)
Winds: variable direction winds at 2 MPH (2 knots; 1.0 m/s)
Visibility: 6 or more miles (10+ km)
Ceiling: ceiling and visibility are OK
Clouds: unknown
Weather: no significant weather observed at this time

METAR text: DAAG 180730Z VRB02KT CAVOK 17/15 Q1019
Conditions at: DAAG (DAR-EL-BEIDA/HOU, DZ) observed 0730 UTC 18 October 2019
Temperature: 17.0°C (63°F)
Dewpoint: 15.0°C (59°F) [RH = 88%]
Pressure (altimeter): 30.09 inches Hg (1019.0 mb)
Winds: variable direction winds at 2 MPH (2 knots; 1.0 m/s)
Visibility: 6 or more miles (10+ km)
Ceiling: ceiling and visibility are OK
Clouds: unknown
Weather: no significant weather observed at this time

METAR text: DAAG 180700Z 00000KT CAVOK 15/14 Q1019
Conditions at: DAAG (DAR-EL-BEIDA/HOU, DZ) observed 0700 UTC 18 October 2019
Temperature: 15.0°C (59°F)
Dewpoint: 14.0°C (57°F) [RH = 94%]
Pressure (altimeter): 30.09 inches Hg (1019.0 mb)
Winds: calm
Visibility: 6 or more miles (10+ km)
Ceiling: ceiling and visibility are OK
Clouds: unknown
Weather: no significant weather observed at this time

METAR text: DAAG 180630Z 00000KT CAVOK 14/13 Q1019
Conditions at: DAAG (DAR-EL-BEIDA/HOU, DZ) observed 0630 UTC 18 October 2019
Temperature: 14.0°C (57°F)
Dewpoint: 13.0°C (55°F) [RH = 94%]
Pressure (altimeter): 30.09 inches Hg (1019.0 mb)
Winds: calm
Visibility: 6 or more miles (10+ km)
Ceiling: ceiling and visibility are OK
Clouds: unknown
Weather: no significant weather observed at this time

METAR text: DAAG 180600Z 00000KT 9999 FEW020 SCT200 13/12 Q1018
Conditions at: DAAG (DAR-EL-BEIDA/HOU, DZ) observed 0600 UTC 18 October 2019
Temperature: 13.0°C (55°F)
Dewpoint: 12.0°C (54°F) [RH = 94%]
Pressure (altimeter): 30.06 inches Hg (1018.0 mb)
Winds: calm
Visibility: 6 or more miles (10+ km)
Ceiling: at least 12,000 feet AGL
Clouds: few clouds at 2000 feet AGL
scattered clouds at 20000 feet AGL
Weather: no significant weather observed at this time

METAR text: DAAG 180530Z 00000KT 9999 FEW016 14/13 Q1018
Conditions at: DAAG (DAR-EL-BEIDA/HOU, DZ) observed 0530 UTC 18 October 2019
Temperature: 14.0°C (57°F)
Dewpoint: 13.0°C (55°F) [RH = 94%]
Pressure (altimeter): 30.06 inches Hg (1018.0 mb)
Winds: calm
Visibility: 6 or more miles (10+ km)
Ceiling: at least 12,000 feet AGL
Clouds: few clouds at 1600 feet AGL
Weather: no significant weather observed at this time

METAR text: DAAG 180500Z 20003KT 9999 FEW016 14/13 Q1018
Conditions at: DAAG (DAR-EL-BEIDA/HOU, DZ) observed 0500 UTC 18 October 2019
Temperature: 14.0°C (57°F)
Dewpoint: 13.0°C (55°F) [RH = 94%]
Pressure (altimeter): 30.06 inches Hg (1018.0 mb)
Winds: from the SSW (200 degrees) at 3 MPH (3 knots; 1.5 m/s)
Visibility: 6 or more miles (10+ km)
Ceiling: at least 12,000 feet AGL
Clouds: few clouds at 1600 feet AGL
Weather: no significant weather observed at this time

METAR text: DAAG 180430Z 32003KT 9999 FEW016 15/14 Q1018
Conditions at: DAAG (DAR-EL-BEIDA/HOU, DZ) observed 0430 UTC 18 October 2019
Temperature: 15.0°C (59°F)
Dewpoint: 14.0°C (57°F) [RH = 94%]
Pressure (altimeter): 30.06 inches Hg (1018.0 mb)
Winds: from the NW (320 degrees) at 3 MPH (3 knots; 1.5 m/s)
Visibility: 6 or more miles (10+ km)
Ceiling: at least 12,000 feet AGL
Clouds: few clouds at 1600 feet AGL
Weather: no significant weather observed at this time

METAR text: DAAG 180400Z 00000KT 9999 FEW016 15/14 Q1018
Conditions at: DAAG (DAR-EL-BEIDA/HOU, DZ) observed 0400 UTC 18 October 2019
Temperature: 15.0°C (59°F)
Dewpoint: 14.0°C (57°F) [RH = 94%]
Pressure (altimeter): 30.06 inches Hg (1018.0 mb)
Winds: calm
Visibility: 6 or more miles (10+ km)
Ceiling: at least 12,000 feet AGL
Clouds: few clouds at 1600 feet AGL
Weather: no significant weather observed at this time

METAR text: DAAG 180330Z 20003KT 170V260 9999 FEW016 16/15 Q1019
Conditions at: DAAG (DAR-EL-BEIDA/HOU, DZ) observed 0330 UTC 18 October 2019
Temperature: 16.0°C (61°F)
Dewpoint: 15.0°C (59°F) [RH = 94%]
Pressure (altimeter): 30.09 inches Hg (1019.0 mb)
Winds: from the SSW (200 degrees) at 3 MPH (3 knots; 1.5 m/s)
Visibility: 6 or more miles (10+ km)
Ceiling: at least 12,000 feet AGL
Clouds: few clouds at 1600 feet AGL
Weather: no significant weather observed at this time

METAR text: DAAG 180300Z 00000KT 9999 FEW016 16/14 Q1019
Conditions at: DAAG (DAR-EL-BEIDA/HOU, DZ) observed 0300 UTC 18 October 2019
Temperature: 16.0°C (61°F)
Dewpoint: 14.0°C (57°F) [RH = 88%]
Pressure (altimeter): 30.09 inches Hg (1019.0 mb)
Winds: calm
Visibility: 6 or more miles (10+ km)
Ceiling: at least 12,000 feet AGL
Clouds: few clouds at 1600 feet AGL
Weather: no significant weather observed at this time

METAR text: DAAG 180230Z 24003KT 9999 FEW016 16/15 Q1019
Conditions at: DAAG (DAR-EL-BEIDA/HOU, DZ) observed 0230 UTC 18 October 2019
Temperature: 16.0°C (61°F)
Dewpoint: 15.0°C (59°F) [RH = 94%]
Pressure (altimeter): 30.09 inches Hg (1019.0 mb)
Winds: from the WSW (240 degrees) at 3 MPH (3 knots; 1.5 m/s)
Visibility: 6 or more miles (10+ km)
Ceiling: at least 12,000 feet AGL
Clouds: few clouds at 1600 feet AGL
Weather: no significant weather observed at this time

METAR text: DAAG 180200Z 29002KT CAVOK 16/14 Q1019
Conditions at: DAAG (DAR-EL-BEIDA/HOU, DZ) observed 0200 UTC 18 October 2019
Temperature: 16.0°C (61°F)
Dewpoint: 14.0°C (57°F) [RH = 88%]
Pressure (altimeter): 30.09 inches Hg (1019.0 mb)
Winds: from the WNW (290 degrees) at 2 MPH (2 knots; 1.0 m/s)
Visibility: 6 or more miles (10+ km)
Ceiling: ceiling and visibility are OK
Clouds: unknown
Weather: no significant weather observed at this time

METAR text: DAAG 180130Z 21003KT CAVOK 16/15 Q1019
Conditions at: DAAG (DAR-EL-BEIDA/HOU, DZ) observed 0130 UTC 18 October 2019
Temperature: 16.0°C (61°F)
Dewpoint: 15.0°C (59°F) [RH = 94%]
Pressure (altimeter): 30.09 inches Hg (1019.0 mb)
Winds: from the SSW (210 degrees) at 3 MPH (3 knots; 1.5 m/s)
Visibility: 6 or more miles (10+ km)
Ceiling: ceiling and visibility are OK
Clouds: unknown
Weather: no significant weather observed at this time

METAR text: DAAG 180100Z 25002KT CAVOK 17/15 Q1019
Conditions at: DAAG (DAR-EL-BEIDA/HOU, DZ) observed 0100 UTC 18 October 2019
Temperature: 17.0°C (63°F)
Dewpoint: 15.0°C (59°F) [RH = 88%]
Pressure (altimeter): 30.09 inches Hg (1019.0 mb)
Winds: from the WSW (250 degrees) at 2 MPH (2 knots; 1.0 m/s)
Visibility: 6 or more miles (10+ km)
Ceiling: ceiling and visibility are OK
Clouds: unknown
Weather: no significant weather observed at this time

METAR text: DAAG 180030Z 28004KT CAVOK 17/15 Q1019
Conditions at: DAAG (DAR-EL-BEIDA/HOU, DZ) observed 0030 UTC 18 October 2019
Temperature: 17.0°C (63°F)
Dewpoint: 15.0°C (59°F) [RH = 88%]
Pressure (altimeter): 30.09 inches Hg (1019.0 mb)
Winds: from the W (280 degrees) at 5 MPH (4 knots; 2.1 m/s)
Visibility: 6 or more miles (10+ km)
Ceiling: ceiling and visibility are OK
Clouds: unknown
Weather: no significant weather observed at this time

METAR text: DAAG 180000Z 26004KT 230V320 CAVOK 17/14 Q1019
Conditions at: DAAG (DAR-EL-BEIDA/HOU, DZ) observed 0000 UTC 18 October 2019
Temperature: 17.0°C (63°F)
Dewpoint: 14.0°C (57°F) [RH = 82%]
Pressure (altimeter): 30.09 inches Hg (1019.0 mb)
Winds: from the W (260 degrees) at 5 MPH (4 knots; 2.1 m/s)
Visibility: 6 or more miles (10+ km)
Ceiling: ceiling and visibility are OK
Clouds: unknown
Weather: no significant weather observed at this time

METAR text: DAAG 172330Z 23006KT 9999 FEW013 17/15 Q1019
Conditions at: DAAG (DAR-EL-BEIDA/HOU, DZ) observed 2330 UTC 17 October 2019
Temperature: 17.0°C (63°F)
Dewpoint: 15.0°C (59°F) [RH = 88%]
Pressure (altimeter): 30.09 inches Hg (1019.0 mb)
Winds: from the SW (230 degrees) at 7 MPH (6 knots; 3.1 m/s)
Visibility: 6 or more miles (10+ km)
Ceiling: at least 12,000 feet AGL
Clouds: few clouds at 1300 feet AGL
Weather: no significant weather observed at this time

METAR text: DAAG 172300Z 23004KT 9999 FEW013 17/15 Q1019
Conditions at: DAAG (DAR-EL-BEIDA/HOU, DZ) observed 2300 UTC 17 October 2019
Temperature: 17.0°C (63°F)
Dewpoint: 15.0°C (59°F) [RH = 88%]
Pressure (altimeter): 30.09 inches Hg (1019.0 mb)
Winds: from the SW (230 degrees) at 5 MPH (4 knots; 2.1 m/s)
Visibility: 6 or more miles (10+ km)
Ceiling: at least 12,000 feet AGL
Clouds: few clouds at 1300 feet AGL
Weather: no significant weather observed at this time

METAR text: DAAG 172230Z 20004KT 9999 FEW013 17/15 Q1019
Conditions at: DAAG (DAR-EL-BEIDA/HOU, DZ) observed 2230 UTC 17 October 2019
Temperature: 17.0°C (63°F)
Dewpoint: 15.0°C (59°F) [RH = 88%]
Pressure (altimeter): 30.09 inches Hg (1019.0 mb)
Winds: from the SSW (200 degrees) at 5 MPH (4 knots; 2.1 m/s)
Visibility: 6 or more miles (10+ km)
Ceiling: at least 12,000 feet AGL
Clouds: few clouds at 1300 feet AGL
Weather: no significant weather observed at this time

METAR text: DAAG 172200Z VRB02KT 9999 FEW013 18/15 Q1019
Conditions at: DAAG (DAR-EL-BEIDA/HOU, DZ) observed 2200 UTC 17 October 2019
Temperature: 18.0°C (64°F)
Dewpoint: 15.0°C (59°F) [RH = 83%]
Pressure (altimeter): 30.09 inches Hg (1019.0 mb)
Winds: variable direction winds at 2 MPH (2 knots; 1.0 m/s)
Visibility: 6 or more miles (10+ km)
Ceiling: at least 12,000 feet AGL
Clouds: few clouds at 1300 feet AGL
Weather: no significant weather observed at this time

METAR text: DAAG 172130Z 09003KT 050V110 9999 FEW013 18/16 Q1019
Conditions at: DAAG (DAR-EL-BEIDA/HOU, DZ) observed 2130 UTC 17 October 2019
Temperature: 18.0°C (64°F)
Dewpoint: 16.0°C (61°F) [RH = 88%]
Pressure (altimeter): 30.09 inches Hg (1019.0 mb)
Winds: from the E (90 degrees) at 3 MPH (3 knots; 1.5 m/s)
Visibility: 6 or more miles (10+ km)
Ceiling: at least 12,000 feet AGL
Clouds: few clouds at 1300 feet AGL
Weather: no significant weather observed at this time

METAR text: DAAG 172100Z 07003KT 040V100 9999 FEW013 18/16 Q1019
Conditions at: DAAG (DAR-EL-BEIDA/HOU, DZ) observed 2100 UTC 17 October 2019
Temperature: 18.0°C (64°F)
Dewpoint: 16.0°C (61°F) [RH = 88%]
Pressure (altimeter): 30.09 inches Hg (1019.0 mb)
Winds: from the ENE (70 degrees) at 3 MPH (3 knots; 1.5 m/s)
Visibility: 6 or more miles (10+ km)
Ceiling: at least 12,000 feet AGL
Clouds: few clouds at 1300 feet AGL
Weather: no significant weather observed at this time

METAR text: DAAG 172030Z 12003KT CAVOK 18/16 Q1019
Conditions at: DAAG (DAR-EL-BEIDA/HOU, DZ) observed 2030 UTC 17 October 2019
Temperature: 18.0°C (64°F)
Dewpoint: 16.0°C (61°F) [RH = 88%]
Pressure (altimeter): 30.09 inches Hg (1019.0 mb)
Winds: from the ESE (120 degrees) at 3 MPH (3 knots; 1.5 m/s)
Visibility: 6 or more miles (10+ km)
Ceiling: ceiling and visibility are OK
Clouds: unknown
Weather: no significant weather observed at this time

METAR text: DAAG 172000Z 16003KT CAVOK 19/15 Q1019
Conditions at: DAAG (DAR-EL-BEIDA/HOU, DZ) observed 2000 UTC 17 October 2019
Temperature: 19.0°C (66°F)
Dewpoint: 15.0°C (59°F) [RH = 78%]
Pressure (altimeter): 30.09 inches Hg (1019.0 mb)
Winds: from the SSE (160 degrees) at 3 MPH (3 knots; 1.5 m/s)
Visibility: 6 or more miles (10+ km)
Ceiling: ceiling and visibility are OK
Clouds: unknown
Weather: no significant weather observed at this time

METAR text: DAAG 171930Z 15003KT CAVOK 19/15 Q1019
Conditions at: DAAG (DAR-EL-BEIDA/HOU, DZ) observed 1930 UTC 17 October 2019
Temperature: 19.0°C (66°F)
Dewpoint: 15.0°C (59°F) [RH = 78%]
Pressure (altimeter): 30.09 inches Hg (1019.0 mb)
Winds: from the SSE (150 degrees) at 3 MPH (3 knots; 1.5 m/s)
Visibility: 6 or more miles (10+ km)
Ceiling: ceiling and visibility are OK
Clouds: unknown
Weather: no significant weather observed at this time

METAR text: DAAG 171900Z 16002KT CAVOK 20/16 Q1019
Conditions at: DAAG (DAR-EL-BEIDA/HOU, DZ) observed 1900 UTC 17 October 2019
Temperature: 20.0°C (68°F)
Dewpoint: 16.0°C (61°F) [RH = 78%]
Pressure (altimeter): 30.09 inches Hg (1019.0 mb)
Winds: from the SSE (160 degrees) at 2 MPH (2 knots; 1.0 m/s)
Visibility: 6 or more miles (10+ km)
Ceiling: ceiling and visibility are OK
Clouds: unknown
Weather: no significant weather observed at this time

METAR text: DAAG 171830Z 15003KT 9999 FEW026 20/16 Q1019
Conditions at: DAAG (DAR-EL-BEIDA/HOU, DZ) observed 1830 UTC 17 October 2019
Temperature: 20.0°C (68°F)
Dewpoint: 16.0°C (61°F) [RH = 78%]
Pressure (altimeter): 30.09 inches Hg (1019.0 mb)
Winds: from the SSE (150 degrees) at 3 MPH (3 knots; 1.5 m/s)
Visibility: 6 or more miles (10+ km)
Ceiling: at least 12,000 feet AGL
Clouds: few clouds at 2600 feet AGL
Weather: no significant weather observed at this time

METAR text: DAAG 171800Z 06003KT 330V090 9999 FEW026 21/17 Q1019
Conditions at: DAAG (DAR-EL-BEIDA/HOU, DZ) observed 1800 UTC 17 October 2019
Temperature: 21.0°C (70°F)
Dewpoint: 17.0°C (63°F) [RH = 78%]
Pressure (altimeter): 30.09 inches Hg (1019.0 mb)
Winds: from the ENE (60 degrees) at 3 MPH (3 knots; 1.5 m/s)
Visibility: 6 or more miles (10+ km)
Ceiling: at least 12,000 feet AGL
Clouds: few clouds at 2600 feet AGL
Weather: no significant weather observed at this time

METAR text: DAAG 171730Z 04005KT 350V070 9999 FEW026 22/17 Q1019
Conditions at: DAAG (DAR-EL-BEIDA/HOU, DZ) observed 1730 UTC 17 October 2019
Temperature: 22.0°C (72°F)
Dewpoint: 17.0°C (63°F) [RH = 73%]
Pressure (altimeter): 30.09 inches Hg (1019.0 mb)
Winds: from the NE (40 degrees) at 6 MPH (5 knots; 2.6 m/s)
Visibility: 6 or more miles (10+ km)
Ceiling: at least 12,000 feet AGL
Clouds: few clouds at 2600 feet AGL
Weather: no significant weather observed at this time

METAR text: DAAG 171700Z 02007KT 9999 FEW026 FEW033CB 23/17 Q1019
Conditions at: DAAG (DAR-EL-BEIDA/HOU, DZ) observed 1700 UTC 17 October 2019
Temperature: 23.0°C (73°F)
Dewpoint: 17.0°C (63°F) [RH = 69%]
Pressure (altimeter): 30.09 inches Hg (1019.0 mb)
Winds: from the NNE (20 degrees) at 8 MPH (7 knots; 3.6 m/s)
Visibility: 6 or more miles (10+ km)
Ceiling: at least 12,000 feet AGL
Clouds: few clouds at 2600 feet AGL
few clouds at 3300 feet AGL
Weather: no significant weather observed at this time

METAR text: DAAG 171630Z 02008KT 350V050 9999 FEW026 FEW033CB 24/17 Q1019
Conditions at: DAAG (DAR-EL-BEIDA/HOU, DZ) observed 1630 UTC 17 October 2019
Temperature: 24.0°C (75°F)
Dewpoint: 17.0°C (63°F) [RH = 65%]
Pressure (altimeter): 30.09 inches Hg (1019.0 mb)
Winds: from the NNE (20 degrees) at 9 MPH (8 knots; 4.1 m/s)
Visibility: 6 or more miles (10+ km)
Ceiling: at least 12,000 feet AGL
Clouds: few clouds at 2600 feet AGL
few clouds at 3300 feet AGL
Weather: no significant weather observed at this time

METAR text: DAAG 171600Z 01010KT 9999 FEW026 FEW033CB 24/17 Q1018
Conditions at: DAAG (DAR-EL-BEIDA/HOU, DZ) observed 1600 UTC 17 October 2019
Temperature: 24.0°C (75°F)
Dewpoint: 17.0°C (63°F) [RH = 65%]
Pressure (altimeter): 30.06 inches Hg (1018.0 mb)
Winds: from the N (10 degrees) at 12 MPH (10 knots; 5.1 m/s)
Visibility: 6 or more miles (10+ km)
Ceiling: at least 12,000 feet AGL
Clouds: few clouds at 2600 feet AGL
few clouds at 3300 feet AGL
Weather: no significant weather observed at this time

METAR text: DAAG 171530Z 01012KT 9999 FEW026 FEW033CB 24/17 Q1018
Conditions at: DAAG (DAR-EL-BEIDA/HOU, DZ) observed 1530 UTC 17 October 2019
Temperature: 24.0°C (75°F)
Dewpoint: 17.0°C (63°F) [RH = 65%]
Pressure (altimeter): 30.06 inches Hg (1018.0 mb)
Winds: from the N (10 degrees) at 14 MPH (12 knots; 6.2 m/s)
Visibility: 6 or more miles (10+ km)
Ceiling: at least 12,000 feet AGL
Clouds: few clouds at 2600 feet AGL
few clouds at 3300 feet AGL
Weather: no significant weather observed at this time

METAR text: DAAG 171500Z 02012KT 340V040 9999 FEW026 25/16 Q1018
Conditions at: DAAG (DAR-EL-BEIDA/HOU, DZ) observed 1500 UTC 17 October 2019
Temperature: 25.0°C (77°F)
Dewpoint: 16.0°C (61°F) [RH = 57%]
Pressure (altimeter): 30.06 inches Hg (1018.0 mb)
Winds: from the NNE (20 degrees) at 14 MPH (12 knots; 6.2 m/s)
Visibility: 6 or more miles (10+ km)
Ceiling: at least 12,000 feet AGL
Clouds: few clouds at 2600 feet AGL
Weather: no significant weather observed at this time

METAR text: DAAG 171430Z 02012KT 350V050 9999 FEW026 26/15 Q1018
Conditions at: DAAG (DAR-EL-BEIDA/HOU, DZ) observed 1430 UTC 17 October 2019
Temperature: 26.0°C (79°F)
Dewpoint: 15.0°C (59°F) [RH = 51%]
Pressure (altimeter): 30.06 inches Hg (1018.0 mb)
Winds: from the NNE (20 degrees) at 14 MPH (12 knots; 6.2 m/s)
Visibility: 6 or more miles (10+ km)
Ceiling: at least 12,000 feet AGL
Clouds: few clouds at 2600 feet AGL
Weather: no significant weather observed at this time

METAR text: DAAG 171400Z 02009KT 9999 FEW026 26/14 Q1018
Conditions at: DAAG (DAR-EL-BEIDA/HOU, DZ) observed 1400 UTC 17 October 2019
Temperature: 26.0°C (79°F)
Dewpoint: 14.0°C (57°F) [RH = 48%]
Pressure (altimeter): 30.06 inches Hg (1018.0 mb)
Winds: from the NNE (20 degrees) at 10 MPH (9 knots; 4.6 m/s)
Visibility: 6 or more miles (10+ km)
Ceiling: at least 12,000 feet AGL
Clouds: few clouds at 2600 feet AGL
Weather: no significant weather observed at this time

METAR text: DAAG 171330Z 03010KT 9999 FEW026 26/15 Q1018
Conditions at: DAAG (DAR-EL-BEIDA/HOU, DZ) observed 1330 UTC 17 October 2019
Temperature: 26.0°C (79°F)
Dewpoint: 15.0°C (59°F) [RH = 51%]
Pressure (altimeter): 30.06 inches Hg (1018.0 mb)
Winds: from the NNE (30 degrees) at 12 MPH (10 knots; 5.1 m/s)
Visibility: 6 or more miles (10+ km)
Ceiling: at least 12,000 feet AGL
Clouds: few clouds at 2600 feet AGL
Weather: no significant weather observed at this time

METAR text: DAAG 171300Z 03010KT 9999 FEW026 26/17 Q1018
Conditions at: DAAG (DAR-EL-BEIDA/HOU, DZ) observed 1300 UTC 17 October 2019
Temperature: 26.0°C (79°F)
Dewpoint: 17.0°C (63°F) [RH = 58%]
Pressure (altimeter): 30.06 inches Hg (1018.0 mb)
Winds: from the NNE (30 degrees) at 12 MPH (10 knots; 5.1 m/s)
Visibility: 6 or more miles (10+ km)
Ceiling: at least 12,000 feet AGL
Clouds: few clouds at 2600 feet AGL
Weather: no significant weather observed at this time

METAR text: DAAG 171230Z 02009KT 9999 FEW026 27/17 Q1019
Conditions at: DAAG (DAR-EL-BEIDA/HOU, DZ) observed 1230 UTC 17 October 2019
Temperature: 27.0°C (81°F)
Dewpoint: 17.0°C (63°F) [RH = 54%]
Pressure (altimeter): 30.09 inches Hg (1019.0 mb)
Winds: from the NNE (20 degrees) at 10 MPH (9 knots; 4.6 m/s)
Visibility: 6 or more miles (10+ km)
Ceiling: at least 12,000 feet AGL
Clouds: few clouds at 2600 feet AGL
Weather: no significant weather observed at this time

METAR text: DAAG 171200Z 02007KT 340V050 9999 FEW026 27/16 Q1019
Conditions at: DAAG (DAR-EL-BEIDA/HOU, DZ) observed 1200 UTC 17 October 2019
Temperature: 27.0°C (81°F)
Dewpoint: 16.0°C (61°F) [RH = 51%]
Pressure (altimeter): 30.09 inches Hg (1019.0 mb)
Winds: from the NNE (20 degrees) at 8 MPH (7 knots; 3.6 m/s)
Visibility: 6 or more miles (10+ km)
Ceiling: at least 12,000 feet AGL
Clouds: few clouds at 2600 feet AGL
Weather: no significant weather observed at this time

METAR text: DAAG 171130Z 32005KT 250V050 9999 FEW026 27/14 Q1019
Conditions at: DAAG (DAR-EL-BEIDA/HOU, DZ) observed 1130 UTC 17 October 2019
Temperature: 27.0°C (81°F)
Dewpoint: 14.0°C (57°F) [RH = 45%]
Pressure (altimeter): 30.09 inches Hg (1019.0 mb)
Winds: from the NW (320 degrees) at 6 MPH (5 knots; 2.6 m/s)
Visibility: 6 or more miles (10+ km)
Ceiling: at least 12,000 feet AGL
Clouds: few clouds at 2600 feet AGL
Weather: no significant weather observed at this time

Forecast for: DAAG (DAR-EL-BEIDA/HOU, DZ)
Text: TAF DAAG 181700Z 1818/1918 09010KT 9999 FEW026
Forecast period: 1800 to 1900 UTC 18 October 2019
Forecast type: FROM: standard forecast or significant change
Winds: from the E (90 degrees) at 12 MPH (10 knots; 5.1 m/s)
Visibility: 6 or more miles 10+ km)
Ceiling: at least 12,000 feet AGL
Clouds: few clouds at 2600 feet AGL
Weather: no significant weather forecast for this period
Text: BECMG 1819/1822 VRB02KT
Forecast period: 1900 UTC 18 October 2019 to 1100 UTC 19 October 2019
Forecast type: BECOMING: Conditions expected to become as follows by 2200 UTC 18 October 2019
Winds: variable direction winds at 2 MPH (2 knots; 1.0 m/s)
Visibility: 6 or more miles 10+ km)
Ceiling: at least 12,000 feet AGL
Clouds: few clouds at 2600 feet AGL
Weather: no significant weather forecast for this period
Text: PROB30
Forecast period: 0000 to 0600 UTC 19 October 2019
Forecast type: TEMPORARY: The following changes expected for less than half the time period
Visibility: 3 miles (5 km)
Ceiling: unknown
Clouds: missing
Weather: BR  (mist)
Text: TEMPO 1900/1906 5000 BR
Forecast period: 1100 to 1800 UTC 19 October 2019
Forecast type: BECOMING: Conditions expected to become as follows by 1400 UTC 19 October 2019
Winds: from the NW (320 degrees) at 12 MPH (10 knots; 5.1 m/s)
Visibility: 6 or more miles 10+ km)
Ceiling: at least 12,000 feet AGL
Clouds: few clouds at 2600 feet AGL
Weather: no significant weather forecast for this period